Houston, Texas
Traffic Map
Current Weather Conditions
Houston, Texas
Broken Clouds
Broken Clouds
81°
Feels Like: 88°
Wind Chill: 81° Ceiling: 25000
Heat Index: 88° Visibility: 10mi
Dew Point: 77° Wind: 9mph
Humidity: 88% Direction: 160° (SSE)
Pressure: 29.97in Gusts: 0mph
Raw Report DataKIAH 251153Z 16008KT 10SM FEW022 BKN250 27/25 A2997 RMK AO2 SLP147 T02720250 10278 20267 53011
Traffic Incident Summary
Active as of:
Severity:
Category:
InformationThere was an issue retrieving the traffic information for this location. Please try a different location or try again shortly.
Advertisements